ワルシャワ の空港の天気 - METARとTAF

ワルシャワ・フレデリック・ショパン空港 ( EPWA / WAW ) - ポーランド ワルシャワ
飛行場実況気象(Metar)
観測時間06/19 18:00 CEST (06/19 16:00 UTC)
風向・風速西北西 5m/s
視程10km以上
天気現象
なし
気温25℃
湿度47%
気圧1019hPa
METAREPWA 191600Z 29009KT CAVOK 25/13 Q1019 NOSIG
過去の天気等 Google飛行場航空写真 Wunderground天気予報

過去48時間のMETAR

飛行場予報(TAF)
発表時間: 6/19 16:30 CEST (6/19 14:30 UTC)
予報対象時間: 19日17時 CEST ~ 20日17時 CEST
風向・風速西 5m/s
視程10km以上
なし
TAF EPWA 191430Z 1915/2015 28009KT CAVOK